Time;durP1;ratioP1;P1;durP2;ratioP2;P2;SDS_P1;SDS_P2;PMS_P1;PMS_P2;Temp;Humidity;BMP_temperature;BMP_pressure;BME280_temperature;BME280_humidity;BME280_pressure;Samples;Min_cycle;Max_cycle;Signal;HPM_P1;HPM_P2
2023/09/09 00:01:28;;;;;;;7.80;7.10;;;;;;;;;;107726;297;39295;-38
2023/09/09 00:04:03;;;;;;;7.90;7.10;;;;;;;;;;107753;297;42562;-38
2023/09/09 00:06:36;;;;;;;7.70;6.90;;;;;;;;;;107695;297;42031;-38
2023/09/09 00:09:11;;;;;;;8.20;7.00;;;;;;;;;;107670;290;38474;-38
2023/09/09 00:11:48;;;;;;;7.80;7.00;;;;;;;;;;107667;297;39482;-38
2023/09/09 00:14:24;;;;;;;8.30;7.40;;;;;;;;;;107770;297;42574;-38
2023/09/09 00:16:59;;;;;;;7.90;7.10;;;;;;;;;;107683;297;42064;-38
2023/09/09 00:19:33;;;;;;;7.80;7.00;;;;;;;;;;107637;299;38539;-38
2023/09/09 00:22:07;;;;;;;7.80;7.00;;;;;;;;;;107623;297;175511;-38
2023/09/09 00:24:40;;;;;;;7.70;6.90;;;;;;;;;;107722;302;42820;-38
2023/09/09 00:27:14;;;;;;;7.50;6.70;;;;;;;;;;107692;298;42604;-39
2023/09/09 00:29:47;;;;;;;7.80;7.00;;;;;;;;;;107711;297;38753;-38
2023/09/09 00:32:20;;;;;;;7.60;6.80;;;;;;;;;;107697;297;39600;-38
2023/09/09 00:34:54;;;;;;;7.70;6.90;;;;;;;;;;107712;297;42778;-38
2023/09/09 00:37:29;;;;;;;8.40;7.20;;;;;;;;;;107687;297;42014;-38
2023/09/09 00:40:04;;;;;;;7.90;7.00;;;;;;;;;;107717;297;38697;-38
2023/09/09 00:42:37;;;;;;;8.00;7.20;;;;;;;;;;107740;294;40663;-38
2023/09/09 00:45:14;;;;;;;8.70;7.20;;;;;;;;;;107738;297;42536;-39
2023/09/09 00:47:49;;;;;;;7.40;6.70;;;;;;;;;;107707;297;42686;-39
2023/09/09 00:50:24;;;;;;;8.30;7.40;;;;;;;;;;107646;299;38495;-36
2023/09/09 00:52:58;;;;;;;7.90;7.10;;;;;;;;;;107733;297;39382;-36
2023/09/09 00:55:39;;;;;;;8.00;7.00;;;;;;;;;;107723;297;42816;-36
2023/09/09 00:58:13;;;;;;;8.30;5.30;;;;;;;;;;107694;297;41771;-37
2023/09/09 01:00:47;;;;;;;7.90;7.10;;;;;;;;;;107712;297;38683;-37
2023/09/09 01:03:20;;;;;;;8.10;7.30;;;;;;;;;;107682;293;39444;-36
2023/09/09 01:05:56;;;;;;;8.00;7.20;;;;;;;;;;107714;297;43868;-36
2023/09/09 01:08:30;;;;;;;8.40;7.60;;;;;;;;;;107640;297;42269;-37
2023/09/09 01:11:03;;;;;;;8.40;7.60;;;;;;;;;;107685;297;39526;-36
2023/09/09 01:13:38;;;;;;;8.30;7.50;;;;;;;;;;107731;297;39335;-38
2023/09/09 01:16:13;;;;;;;8.00;7.20;;;;;;;;;;107727;297;42796;-38
2023/09/09 01:18:47;;;;;;;8.40;7.50;;;;;;;;;;107685;297;41778;-37
2023/09/09 01:21:28;;;;;;;8.50;7.70;;;;;;;;;;107702;297;38514;-37
2023/09/09 01:24:04;;;;;;;8.30;7.50;;;;;;;;;;107730;297;39619;-37
2023/09/09 01:26:37;;;;;;;8.50;7.60;;;;;;;;;;107726;298;42822;-38
2023/09/09 01:29:11;;;;;;;8.60;7.70;;;;;;;;;;107642;290;41883;-37
2023/09/09 01:31:44;;;;;;;8.80;7.90;;;;;;;;;;107684;303;38777;-38
2023/09/09 01:34:21;;;;;;;8.00;7.20;;;;;;;;;;107712;298;39362;-37
2023/09/09 01:36:58;;;;;;;8.70;7.80;;;;;;;;;;107748;297;43044;-37
2023/09/09 01:39:37;;;;;;;8.50;7.50;;;;;;;;;;107661;297;43175;-37
2023/09/09 01:42:12;;;;;;;8.70;7.90;;;;;;;;;;107726;297;38547;-37
2023/09/09 01:44:50;;;;;;;8.70;7.80;;;;;;;;;;107755;298;40776;-37
2023/09/09 01:47:25;;;;;;;8.40;7.50;;;;;;;;;;107705;297;43170;-38
2023/09/09 01:49:58;;;;;;;9.00;8.20;;;;;;;;;;107693;297;41910;-38
2023/09/09 01:52:32;;;;;;;8.60;7.70;;;;;;;;;;107712;297;38755;-38
2023/09/09 01:55:06;;;;;;;9.00;8.10;;;;;;;;;;107704;297;39802;-38
2023/09/09 01:57:39;;;;;;;9.00;8.20;;;;;;;;;;107749;297;42539;-38
2023/09/09 02:00:15;;;;;;;8.60;7.80;;;;;;;;;;107657;297;41806;-37
2023/09/09 02:02:48;;;;;;;8.60;7.80;;;;;;;;;;107713;290;38772;-37
2023/09/09 02:05:22;;;;;;;8.80;7.90;;;;;;;;;;107763;297;39373;-37
2023/09/09 02:07:55;;;;;;;8.90;7.70;;;;;;;;;;107710;297;43639;-37
2023/09/09 02:10:28;;;;;;;8.50;7.70;;;;;;;;;;107672;303;42262;-37
2023/09/09 02:13:02;;;;;;;8.80;7.90;;;;;;;;;;107709;297;38732;-38
2023/09/09 02:15:36;;;;;;;8.20;7.40;;;;;;;;;;107715;290;39540;-37
2023/09/09 02:18:10;;;;;;;8.70;7.90;;;;;;;;;;107656;297;42814;-37
2023/09/09 02:20:43;;;;;;;8.20;7.40;;;;;;;;;;107684;297;41814;-38
2023/09/09 02:23:16;;;;;;;8.40;7.60;;;;;;;;;;107715;297;38751;-38
2023/09/09 02:25:50;;;;;;;8.80;7.90;;;;;;;;;;107743;297;40677;-37
2023/09/09 02:28:26;;;;;;;8.70;7.80;;;;;;;;;;107584;297;175540;-38
2023/09/09 02:31:02;;;;;;;8.70;7.80;;;;;;;;;;107575;297;175017;-37
2023/09/09 02:33:35;;;;;;;9.10;8.30;;;;;;;;;;107635;297;175530;-38
2023/09/09 02:36:10;;;;;;;8.80;7.80;;;;;;;;;;107718;297;39573;-38
2023/09/09 02:38:47;;;;;;;8.70;7.80;;;;;;;;;;107712;297;42537;-37
2023/09/09 02:41:24;;;;;;;8.70;7.80;;;;;;;;;;107625;298;41756;-36
2023/09/09 02:43:57;;;;;;;8.80;7.90;;;;;;;;;;107682;298;38778;-37
2023/09/09 02:46:32;;;;;;;9.20;8.30;;;;;;;;;;107671;298;39355;-36
2023/09/09 02:49:05;;;;;;;9.60;8.70;;;;;;;;;;107661;298;42748;-36
2023/09/09 02:51:40;;;;;;;8.70;7.90;;;;;;;;;;107629;298;41804;-37
2023/09/09 02:54:15;;;;;;;9.10;8.20;;;;;;;;;;107684;298;38537;-36
2023/09/09 02:56:48;;;;;;;8.90;8.10;;;;;;;;;;107653;298;39602;-36
2023/09/09 02:59:22;;;;;;;9.10;8.20;;;;;;;;;;107650;298;43835;-36
2023/09/09 03:01:55;;;;;;;9.70;8.80;;;;;;;;;;107622;298;41795;-36
2023/09/09 03:04:29;;;;;;;9.30;8.40;;;;;;;;;;106999;298;893044;-37
2023/09/09 03:07:03;;;;;;;9.60;8.70;;;;;;;;;;107558;300;39346;-37
2023/09/09 03:09:37;;;;;;;9.40;8.50;;;;;;;;;;107646;303;42669;-36
2023/09/09 03:12:11;;;;;;;9.80;8.60;;;;;;;;;;107630;298;41915;-36
2023/09/09 03:14:47;;;;;;;8.90;8.10;;;;;;;;;;107698;298;38506;-36
2023/09/09 03:17:22;;;;;;;9.40;8.50;;;;;;;;;;107694;298;39365;-37
2023/09/09 03:19:55;;;;;;;10.10;9.10;;;;;;;;;;107656;298;42528;-37
2023/09/09 03:22:28;;;;;;;10.20;9.20;;;;;;;;;;107508;298;175501;-36
2023/09/09 03:25:02;;;;;;;10.10;9.10;;;;;;;;;;107680;298;39883;-36
2023/09/09 03:27:35;;;;;;;10.60;9.10;;;;;;;;;;107681;298;39355;-37
2023/09/09 03:30:14;;;;;;;10.50;9.50;;;;;;;;;;107644;298;42611;-36
2023/09/09 03:32:50;;;;;;;10.10;9.10;;;;;;;;;;107637;298;47761;-37
2023/09/09 03:35:24;;;;;;;9.80;8.90;;;;;;;;;;107022;298;892105;-36
2023/09/09 03:37:59;;;;;;;10.80;9.70;;;;;;;;;;107677;303;39343;-37
2023/09/09 03:40:33;;;;;;;10.90;9.80;;;;;;;;;;107658;298;42799;-36
2023/09/09 03:43:07;;;;;;;10.10;9.10;;;;;;;;;;107628;298;48932;-36
2023/09/09 03:45:40;;;;;;;10.70;9.70;;;;;;;;;;107640;298;38487;-36
2023/09/09 03:48:14;;;;;;;10.90;9.80;;;;;;;;;;107656;298;40039;-36
2023/09/09 03:50:47;;;;;;;10.90;9.80;;;;;;;;;;107661;298;42548;-36
2023/09/09 03:53:21;;;;;;;10.70;9.60;;;;;;;;;;107635;298;47718;-37
2023/09/09 03:55:54;;;;;;;10.70;9.60;;;;;;;;;;107748;298;38504;-36
2023/09/09 03:58:32;;;;;;;10.80;9.80;;;;;;;;;;107720;298;39637;-37
2023/09/09 04:01:08;;;;;;;10.60;9.60;;;;;;;;;;107476;298;195794;-36
2023/09/09 04:03:49;;;;;;;10.90;9.80;;;;;;;;;;107657;298;47689;-36
2023/09/09 04:06:25;;;;;;;10.90;9.80;;;;;;;;;;107694;298;39808;-36
2023/09/09 04:08:58;;;;;;;11.00;9.90;;;;;;;;;;107647;298;39527;-36
2023/09/09 04:11:40;;;;;;;11.00;9.90;;;;;;;;;;107681;298;42785;-36
2023/09/09 04:14:36;;;;;;;11.10;10.00;;;;;;;;;;107696;298;47496;-36
2023/09/09 04:17:09;;;;;;;11.30;10.20;;;;;;;;;;107672;298;38474;-35
2023/09/09 04:19:45;;;;;;;11.20;10.00;;;;;;;;;;107703;298;40680;-36
2023/09/09 04:22:19;;;;;;;10.80;9.80;;;;;;;;;;107658;298;42859;-36
2023/09/09 04:24:53;;;;;;;11.10;10.00;;;;;;;;;;107695;298;48290;-36
2023/09/09 04:27:31;;;;;;;11.40;10.20;;;;;;;;;;107765;298;38584;-35
2023/09/09 04:30:09;;;;;;;11.30;10.10;;;;;;;;;;107745;298;39539;-36
2023/09/09 04:32:42;;;;;;;11.50;10.40;;;;;;;;;;107665;298;42553;-35
2023/09/09 04:35:16;;;;;;;11.40;10.30;;;;;;;;;;107691;298;42064;-35
2023/09/09 04:37:50;;;;;;;11.20;10.20;;;;;;;;;;107693;303;38686;-36
2023/09/09 04:40:23;;;;;;;11.50;10.40;;;;;;;;;;107690;298;39373;-36
2023/09/09 04:42:57;;;;;;;11.60;10.40;;;;;;;;;;107673;298;42773;-35
2023/09/09 04:45:31;;;;;;;11.30;10.30;;;;;;;;;;107660;298;42012;-36
2023/09/09 04:48:07;;;;;;;11.20;10.10;;;;;;;;;;107669;298;39755;-36
2023/09/09 04:50:44;;;;;;;11.60;10.60;;;;;;;;;;107665;298;39506;-36
2023/09/09 04:53:20;;;;;;;11.60;10.40;;;;;;;;;;107631;298;43006;-36
2023/09/09 04:55:53;;;;;;;12.10;10.90;;;;;;;;;;107698;298;42007;-37
2023/09/09 04:58:27;;;;;;;11.60;10.50;;;;;;;;;;107686;298;38508;-37
2023/09/09 05:01:02;;;;;;;11.10;10.00;;;;;;;;;;107697;298;39864;-36
2023/09/09 05:03:41;;;;;;;11.50;10.40;;;;;;;;;;107669;298;42568;-35
2023/09/09 05:06:15;;;;;;;11.60;10.50;;;;;;;;;;107699;298;41917;-35
2023/09/09 05:08:51;;;;;;;11.20;10.10;;;;;;;;;;107432;298;333493;-35
2023/09/09 05:11:31;;;;;;;11.20;10.10;;;;;;;;;;107693;298;39351;-36
2023/09/09 05:14:06;;;;;;;11.20;10.10;;;;;;;;;;107644;294;43116;-36
2023/09/09 05:16:46;;;;;;;11.20;10.20;;;;;;;;;;106442;298;911120;-35
2023/09/09 05:19:24;;;;;;;10.60;9.60;;;;;;;;;;107763;298;39923;-36
2023/09/09 05:21:58;;;;;;;11.30;10.20;;;;;;;;;;107653;298;39349;-36
2023/09/09 05:24:35;;;;;;;11.50;10.40;;;;;;;;;;107618;298;42651;-37
2023/09/09 05:27:10;;;;;;;11.30;10.20;;;;;;;;;;107736;298;41991;-37
2023/09/09 05:29:48;;;;;;;11.30;10.20;;;;;;;;;;107636;298;38467;-36
2023/09/09 05:32:27;;;;;;;10.50;9.50;;;;;;;;;;107734;298;39386;-35
2023/09/09 05:35:02;;;;;;;11.50;10.40;;;;;;;;;;107633;298;42782;-35
2023/09/09 05:37:38;;;;;;;11.10;10.00;;;;;;;;;;107662;298;42040;-35
2023/09/09 05:40:20;;;;;;;11.50;10.40;;;;;;;;;;107683;298;38769;-36
2023/09/09 05:42:54;;;;;;;11.30;10.20;;;;;;;;;;107680;298;39781;-36
2023/09/09 05:45:29;;;;;;;10.70;9.70;;;;;;;;;;107703;298;43983;-35
2023/09/09 05:48:03;;;;;;;11.20;10.10;;;;;;;;;;107694;298;41851;-35
2023/09/09 05:50:40;;;;;;;11.70;10.60;;;;;;;;;;107742;298;38508;-36
2023/09/09 05:53:13;;;;;;;11.20;10.20;;;;;;;;;;107690;298;39530;-36
2023/09/09 05:55:47;;;;;;;11.10;10.10;;;;;;;;;;107658;298;42607;-35
2023/09/09 05:58:24;;;;;;;11.70;10.50;;;;;;;;;;107702;298;41864;-36
2023/09/09 06:01:00;;;;;;;11.40;10.30;;;;;;;;;;107652;298;38501;-38
2023/09/09 06:03:35;;;;;;;11.30;10.20;;;;;;;;;;107686;298;39503;-37
2023/09/09 06:06:14;;;;;;;11.30;10.20;;;;;;;;;;107632;298;44023;-37
2023/09/09 06:08:48;;;;;;;11.50;10.40;;;;;;;;;;107688;298;42028;-38
2023/09/09 06:11:22;;;;;;;11.20;10.10;;;;;;;;;;107697;298;38552;-38
2023/09/09 06:13:57;;;;;;;11.00;9.90;;;;;;;;;;107691;293;39698;-37
2023/09/09 06:16:32;;;;;;;11.30;10.20;;;;;;;;;;107650;289;42944;-38
2023/09/09 06:19:13;;;;;;;11.10;10.00;;;;;;;;;;107738;297;42115;-37
2023/09/09 06:21:49;;;;;;;10.90;9.90;;;;;;;;;;107598;297;175160;-37
2023/09/09 06:24:22;;;;;;;11.30;10.20;;;;;;;;;;107724;297;40789;-37
2023/09/09 06:26:56;;;;;;;11.60;10.50;;;;;;;;;;107700;297;42701;-38
2023/09/09 06:29:30;;;;;;;11.00;10.00;;;;;;;;;;107729;297;42082;-37
2023/09/09 06:32:06;;;;;;;11.10;10.10;;;;;;;;;;107748;297;38502;-38
2023/09/09 06:34:40;;;;;;;11.20;10.20;;;;;;;;;;107746;297;39340;-37
2023/09/09 06:37:14;;;;;;;11.20;10.10;;;;;;;;;;107689;297;42622;-37
2023/09/09 06:39:48;;;;;;;10.90;9.90;;;;;;;;;;107747;298;43175;-38
2023/09/09 06:42:23;;;;;;;11.80;10.30;;;;;;;;;;107717;298;38523;-37
2023/09/09 06:44:56;;;;;;;11.30;10.30;;;;;;;;;;107703;297;39394;-38
2023/09/09 06:47:31;;;;;;;11.60;10.50;;;;;;;;;;107686;297;48411;-37
2023/09/09 06:50:10;;;;;;;12.30;11.00;;;;;;;;;;107645;294;42006;-36
2023/09/09 06:52:44;;;;;;;13.50;11.20;;;;;;;;;;107689;294;38697;-34
2023/09/09 06:55:17;;;;;;;11.90;10.70;;;;;;;;;;107666;297;40662;-37
2023/09/09 06:57:50;;;;;;;12.80;11.40;;;;;;;;;;107680;298;42573;-37
2023/09/09 07:00:24;;;;;;;13.10;11.50;;;;;;;;;;107691;294;43216;-37
2023/09/09 07:02:57;;;;;;;13.00;11.70;;;;;;;;;;107685;298;38675;-37
2023/09/09 07:05:34;;;;;;;13.30;12.00;;;;;;;;;;107710;297;39535;-37
2023/09/09 07:08:16;;;;;;;14.50;12.30;;;;;;;;;;107654;294;48851;-37
2023/09/09 07:10:56;;;;;;;16.20;12.70;;;;;;;;;;107718;294;42094;-37
2023/09/09 07:13:36;;;;;;;14.90;12.70;;;;;;;;;;107720;297;38684;-37
2023/09/09 07:16:11;;;;;;;14.20;12.50;;;;;;;;;;107668;294;39334;-37
2023/09/09 07:18:44;;;;;;;14.60;12.80;;;;;;;;;;107722;297;42861;-36
2023/09/09 07:21:18;;;;;;;14.20;12.30;;;;;;;;;;107688;298;42113;-36
2023/09/09 07:23:54;;;;;;;15.60;12.40;;;;;;;;;;107717;290;38650;-36
2023/09/09 07:26:29;;;;;;;14.40;12.90;;;;;;;;;;107705;290;40669;-36
2023/09/09 07:29:09;;;;;;;15.10;13.50;;;;;;;;;;107723;297;42484;-38
2023/09/09 07:31:47;;;;;;;16.20;14.40;;;;;;;;;;107704;297;42194;-37
2023/09/09 07:34:27;;;;;;;16.00;14.20;;;;;;;;;;107655;294;38523;-36
2023/09/09 07:37:02;;;;;;;17.10;14.20;;;;;;;;;;108577;298;39564;-37
2023/09/09 07:39:50;;;;;;;17.30;14.60;;;;;;;;;;107709;297;42895;-37
2023/09/09 07:42:25;;;;;;;17.80;14.90;;;;;;;;;;107722;298;42144;-37
2023/09/09 07:45:01;;;;;;;16.80;14.90;;;;;;;;;;107746;297;38548;-37
2023/09/09 07:47:34;;;;;;;16.50;14.80;;;;;;;;;;107677;297;40890;-37
2023/09/09 07:50:11;;;;;;;16.50;14.80;;;;;;;;;;107705;298;42841;-36
2023/09/09 07:52:47;;;;;;;15.70;14.10;;;;;;;;;;107724;297;43247;-37
2023/09/09 07:55:24;;;;;;;17.10;14.90;;;;;;;;;;107730;297;38521;-37
2023/09/09 07:58:00;;;;;;;16.90;14.90;;;;;;;;;;107652;297;39588;-36
2023/09/09 08:00:41;;;;;;;15.60;14.00;;;;;;;;;;107595;298;43069;-36
2023/09/09 08:03:15;;;;;;;16.70;14.70;;;;;;;;;;107700;298;41950;-36
2023/09/09 08:06:02;;;;;;;15.10;13.60;;;;;;;;;;107726;297;38996;-37
2023/09/09 08:08:36;;;;;;;16.40;14.00;;;;;;;;;;107692;297;40833;-36
2023/09/09 08:11:11;;;;;;;16.50;14.20;;;;;;;;;;107715;298;43030;-36
2023/09/09 08:13:47;;;;;;;15.80;14.10;;;;;;;;;;107714;297;41927;-36
2023/09/09 08:16:22;;;;;;;15.60;13.90;;;;;;;;;;107666;297;38536;-37
2023/09/09 08:19:00;;;;;;;15.80;14.20;;;;;;;;;;107708;297;39333;-37
2023/09/09 08:21:35;;;;;;;15.30;13.80;;;;;;;;;;107740;297;42753;-37
2023/09/09 08:24:11;;;;;;;15.80;14.20;;;;;;;;;;107746;297;42110;-37
2023/09/09 08:26:48;;;;;;;16.40;14.40;;;;;;;;;;107714;297;39817;-37
2023/09/09 08:29:22;;;;;;;15.60;14.00;;;;;;;;;;107657;297;39583;-37
2023/09/09 08:31:55;;;;;;;15.40;13.20;;;;;;;;;;107713;298;43915;-37
2023/09/09 08:34:33;;;;;;;15.30;13.30;;;;;;;;;;107736;297;42248;-37
2023/09/09 08:37:10;;;;;;;15.90;14.30;;;;;;;;;;107730;297;38918;-37
2023/09/09 08:39:48;;;;;;;15.90;14.20;;;;;;;;;;107711;297;39355;-37
2023/09/09 08:42:37;;;;;;;17.00;13.30;;;;;;;;;;107714;297;43829;-37
2023/09/09 08:45:24;;;;;;;15.80;14.10;;;;;;;;;;107738;297;41954;-37
2023/09/09 08:48:01;;;;;;;16.30;14.10;;;;;;;;;;107674;298;39959;-37
2023/09/09 08:50:39;;;;;;;16.00;14.20;;;;;;;;;;107715;297;39604;-37
2023/09/09 08:53:16;;;;;;;15.60;14.10;;;;;;;;;;107757;297;42526;-37
2023/09/09 08:55:50;;;;;;;16.30;13.80;;;;;;;;;;107716;298;42100;-36
2023/09/09 08:58:30;;;;;;;14.90;13.40;;;;;;;;;;107644;290;38746;-37
2023/09/09 09:01:04;;;;;;;15.60;13.50;;;;;;;;;;107674;293;39411;-38
2023/09/09 09:03:40;;;;;;;15.90;13.50;;;;;;;;;;107702;295;42710;-38
2023/09/09 09:06:16;;;;;;;14.60;13.10;;;;;;;;;;107721;290;41860;-37
2023/09/09 09:08:51;;;;;;;14.70;12.90;;;;;;;;;;107679;297;38802;-37
2023/09/09 09:11:28;;;;;;;13.90;12.40;;;;;;;;;;107703;297;40688;-34
2023/09/09 09:14:14;;;;;;;14.40;12.00;;;;;;;;;;107695;297;42576;-37
2023/09/09 09:16:48;;;;;;;12.40;11.20;;;;;;;;;;107718;290;42137;-34
2023/09/09 09:19:31;;;;;;;12.50;11.30;;;;;;;;;;107672;297;38782;-35
2023/09/09 09:22:05;;;;;;;12.60;11.30;;;;;;;;;;107714;297;40668;-35
2023/09/09 09:24:48;;;;;;;13.70;11.10;;;;;;;;;;107748;293;43071;-37
2023/09/09 09:27:24;;;;;;;12.10;10.80;;;;;;;;;;107687;290;41830;-36
2023/09/09 09:29:58;;;;;;;12.10;10.80;;;;;;;;;;107696;297;39961;-35
2023/09/09 09:32:44;;;;;;;11.20;10.10;;;;;;;;;;107696;297;39366;-35
2023/09/09 09:35:28;;;;;;;10.80;9.70;;;;;;;;;;107709;290;42809;-37
2023/09/09 09:38:07;;;;;;;10.50;9.50;;;;;;;;;;107731;297;41828;-36
2023/09/09 09:40:44;;;;;;;10.40;9.40;;;;;;;;;;107666;290;38485;-37
2023/09/09 09:43:24;;;;;;;11.20;9.80;;;;;;;;;;107737;297;39340;-37
2023/09/09 09:46:23;;;;;;;9.70;8.70;;;;;;;;;;107750;297;42721;-37
2023/09/09 09:48:56;;;;;;;9.60;8.50;;;;;;;;;;107696;297;41852;-38
2023/09/09 09:51:46;;;;;;;10.50;8.80;;;;;;;;;;107730;297;44898;-38
2023/09/09 09:54:24;;;;;;;9.30;8.40;;;;;;;;;;107740;293;39528;-38
2023/09/09 09:57:03;;;;;;;10.10;9.10;;;;;;;;;;107739;297;42705;-37
2023/09/09 09:59:42;;;;;;;9.40;8.50;;;;;;;;;;107683;297;41970;-37
2023/09/09 10:02:19;;;;;;;9.60;8.60;;;;;;;;;;107740;293;38504;-38
2023/09/09 10:04:53;;;;;;;9.20;8.20;;;;;;;;;;107721;290;39336;-38
2023/09/09 10:07:35;;;;;;;8.60;7.60;;;;;;;;;;107703;297;42991;-38
2023/09/09 10:10:22;;;;;;;8.70;7.80;;;;;;;;;;107649;294;41836;-37
2023/09/09 10:13:05;;;;;;;8.40;7.50;;;;;;;;;;107735;297;38782;-37
2023/09/09 10:15:42;;;;;;;8.30;7.50;;;;;;;;;;107698;297;39471;-37
2023/09/09 10:18:25;;;;;;;8.60;7.80;;;;;;;;;;107724;297;42546;-36
2023/09/09 10:21:07;;;;;;;8.10;7.30;;;;;;;;;;107689;297;41996;-37
2023/09/09 10:23:42;;;;;;;8.80;7.90;;;;;;;;;;107726;297;38489;-37
2023/09/09 10:26:16;;;;;;;8.50;7.60;;;;;;;;;;107722;297;39394;-37
2023/09/09 10:28:50;;;;;;;8.10;7.30;;;;;;;;;;107715;290;42813;-37
2023/09/09 10:31:26;;;;;;;8.40;7.60;;;;;;;;;;107659;297;41903;-39
2023/09/09 10:34:01;;;;;;;8.10;7.30;;;;;;;;;;107684;294;38453;-38
2023/09/09 10:36:39;;;;;;;8.20;7.40;;;;;;;;;;107729;298;40641;-38
2023/09/09 10:39:36;;;;;;;7.60;6.80;;;;;;;;;;107706;297;42548;-38
2023/09/09 10:42:18;;;;;;;8.00;7.20;;;;;;;;;;107688;297;41982;-38
2023/09/09 10:44:53;;;;;;;7.40;6.70;;;;;;;;;;107587;297;175466;-38
2023/09/09 10:47:28;;;;;;;7.90;6.80;;;;;;;;;;107709;297;39390;-38
2023/09/09 10:50:11;;;;;;;7.80;6.50;;;;;;;;;;107732;297;42969;-38
2023/09/09 10:52:45;;;;;;;7.50;6.60;;;;;;;;;;107636;297;49025;-38
2023/09/09 10:55:29;;;;;;;7.00;6.30;;;;;;;;;;107640;302;38772;-38
2023/09/09 10:58:04;;;;;;;7.70;6.30;;;;;;;;;;107693;297;39657;-38
2023/09/09 11:00:42;;;;;;;9.50;6.50;;;;;;;;;;107580;290;175447;-38
2023/09/09 11:03:24;;;;;;;6.90;6.20;;;;;;;;;;107641;297;48097;-38
2023/09/09 11:06:10;;;;;;;7.90;6.30;;;;;;;;;;107747;297;38685;-38
2023/09/09 11:08:50;;;;;;;6.90;6.20;;;;;;;;;;107693;290;39538;-38
2023/09/09 11:11:31;;;;;;;7.20;5.90;;;;;;;;;;107672;294;42552;-38
2023/09/09 11:14:04;;;;;;;;;;;;;;;;;;107730;294;41997;-38
2023/09/09 11:16:42;;;;;;;8.00;6.70;;;;;;;;;;107711;298;38471;-38
2023/09/09 11:19:17;;;;;;;7.30;6.40;;;;;;;;;;107726;297;39568;-38
2023/09/09 11:21:52;;;;;;;7.90;6.20;;;;;;;;;;107681;290;42705;-38
2023/09/09 11:24:26;;;;;;;7.20;6.50;;;;;;;;;;107679;297;42063;-38
2023/09/09 11:27:00;;;;;;;7.50;6.40;;;;;;;;;;107690;298;38559;-38
2023/09/09 11:29:37;;;;;;;6.90;6.00;;;;;;;;;;107688;297;39337;-38
2023/09/09 11:32:20;;;;;;;7.20;6.00;;;;;;;;;;107647;297;42916;-38
2023/09/09 11:34:56;;;;;;;13.00;9.10;;;;;;;;;;107681;297;42174;-38
2023/09/09 11:37:30;;;;;;;6.80;6.00;;;;;;;;;;107695;298;38681;-38
2023/09/09 11:40:08;;;;;;;8.40;6.50;;;;;;;;;;107715;297;40658;-38
2023/09/09 11:42:58;;;;;;;8.00;6.50;;;;;;;;;;107679;294;42983;-38
2023/09/09 11:45:36;;;;;;;7.00;5.90;;;;;;;;;;107728;294;42030;-38
2023/09/09 11:48:14;;;;;;;8.10;6.50;;;;;;;;;;107720;297;38696;-38
2023/09/09 11:50:48;;;;;;;7.00;6.10;;;;;;;;;;107730;290;39334;-38
2023/09/09 11:53:30;;;;;;;7.70;6.90;;;;;;;;;;107692;290;42541;-38
2023/09/09 11:56:08;;;;;;;7.20;6.40;;;;;;;;;;107617;297;196009;-38
2023/09/09 11:58:50;;;;;;;7.80;6.90;;;;;;;;;;107655;294;38760;-38
2023/09/09 12:01:25;;;;;;;7.70;6.90;;;;;;;;;;107747;298;39522;-38
2023/09/09 12:04:16;;;;;;;7.40;6.40;;;;;;;;;;107619;294;42919;-38
2023/09/09 12:06:58;;;;;;;7.80;6.80;;;;;;;;;;107659;298;43181;-38
2023/09/09 12:09:33;;;;;;;7.10;6.00;;;;;;;;;;107687;297;38681;-38
2023/09/09 12:12:14;;;;;;;7.90;6.70;;;;;;;;;;107695;297;39613;-38
2023/09/09 12:15:00;;;;;;;7.40;6.30;;;;;;;;;;107676;290;49135;-38
2023/09/09 12:17:35;;;;;;;7.40;6.60;;;;;;;;;;107700;297;43240;-38
2023/09/09 12:20:18;;;;;;;8.10;6.90;;;;;;;;;;107714;297;38493;-38
2023/09/09 12:22:53;;;;;;;7.30;6.60;;;;;;;;;;107679;297;40745;-38
2023/09/09 12:25:36;;;;;;;7.20;6.50;;;;;;;;;;107670;290;42562;-38
2023/09/09 12:28:19;;;;;;;7.40;6.60;;;;;;;;;;107730;293;42142;-38
2023/09/09 12:30:54;;;;;;;7.40;6.50;;;;;;;;;;107663;297;39794;-38
2023/09/09 12:33:49;;;;;;;8.00;6.50;;;;;;;;;;107705;297;39353;-37
2023/09/09 12:36:24;;;;;;;7.80;6.50;;;;;;;;;;107765;297;42702;-38
2023/09/09 12:39:02;;;;;;;8.30;6.80;;;;;;;;;;107731;290;42218;-38
2023/09/09 12:41:43;;;;;;;8.30;7.50;;;;;;;;;;107733;297;38572;-37
2023/09/09 12:44:16;;;;;;;7.70;6.70;;;;;;;;;;107651;297;40659;-37
2023/09/09 12:46:55;;;;;;;8.50;7.50;;;;;;;;;;107726;290;42553;-38
2023/09/09 12:49:30;;;;;;;7.60;6.80;;;;;;;;;;107736;297;41827;-38
2023/09/09 12:52:10;;;;;;;8.10;7.30;;;;;;;;;;107724;297;38925;-37
2023/09/09 12:54:46;;;;;;;12.40;7.20;;;;;;;;;;107678;290;40134;-38
2023/09/09 12:57:23;;;;;;;7.80;6.90;;;;;;;;;;107708;293;42752;-37
2023/09/09 12:59:56;;;;;;;7.60;6.90;;;;;;;;;;107724;297;41962;-37
2023/09/09 13:02:30;;;;;;;7.90;6.90;;;;;;;;;;107573;290;175429;-37
2023/09/09 13:05:04;;;;;;;7.70;6.90;;;;;;;;;;107658;290;39311;-38
2023/09/09 13:07:37;;;;;;;8.10;7.30;;;;;;;;;;107699;290;43976;-38
2023/09/09 13:10:15;;;;;;;9.30;7.80;;;;;;;;;;107354;294;434424;-38
2023/09/09 13:12:53;;;;;;;10.30;8.60;;;;;;;;;;107677;293;38541;-38
2023/09/09 13:15:28;;;;;;;8.50;7.60;;;;;;;;;;107672;290;40764;-38
2023/09/09 13:18:03;;;;;;;9.20;7.80;;;;;;;;;;107692;297;42997;-38
2023/09/09 13:20:38;;;;;;;9.30;7.40;;;;;;;;;;107744;293;41790;-38
2023/09/09 13:23:17;;;;;;;7.90;7.10;;;;;;;;;;107711;290;38547;-37
2023/09/09 13:25:55;;;;;;;8.70;7.40;;;;;;;;;;107697;290;39364;-38
2023/09/09 13:28:29;;;;;;;8.10;7.30;;;;;;;;;;107732;293;44180;-38
2023/09/09 13:31:06;;;;;;;9.30;7.00;;;;;;;;;;107736;297;41789;-38
2023/09/09 13:33:42;;;;;;;8.50;7.60;;;;;;;;;;107712;297;38485;-38
2023/09/09 13:36:16;;;;;;;6.90;6.20;;;;;;;;;;107707;293;45430;-38
2023/09/09 13:38:51;;;;;;;7.70;6.90;;;;;;;;;;107665;297;42751;-38
2023/09/09 13:41:28;;;;;;;7.70;6.80;;;;;;;;;;107708;297;41776;-38
2023/09/09 13:44:04;;;;;;;9.50;7.60;;;;;;;;;;107733;290;38605;-38
2023/09/09 13:46:38;;;;;;;8.70;7.60;;;;;;;;;;107817;297;46504;-38
2023/09/09 13:49:12;;;;;;;9.00;7.70;;;;;;;;;;107749;297;42710;-38
2023/09/09 13:51:44;;;;;;;;;;;;;;;;;;107692;293;41962;-38
2023/09/09 13:54:21;;;;;;;10.20;9.10;;;;;;;;;;107692;297;38504;-38
2023/09/09 13:56:58;;;;;;;8.50;7.60;;;;;;;;;;107694;297;45289;-38
2023/09/09 13:59:32;;;;;;;10.30;9.00;;;;;;;;;;107683;297;42582;-38
2023/09/09 14:02:10;;;;;;;9.90;8.30;;;;;;;;;;107728;294;42082;-38
2023/09/09 14:04:43;;;;;;;9.00;8.00;;;;;;;;;;107701;297;39888;-38
2023/09/09 14:07:16;;;;;;;10.00;7.90;;;;;;;;;;107739;297;39331;-38
2023/09/09 14:09:50;;;;;;;9.10;7.90;;;;;;;;;;107685;297;42621;-38
2023/09/09 14:12:26;;;;;;;8.90;8.00;;;;;;;;;;107696;297;42064;-38
2023/09/09 14:15:03;;;;;;;8.70;7.60;;;;;;;;;;107715;290;39833;-38
2023/09/09 14:17:38;;;;;;;9.00;7.70;;;;;;;;;;107675;297;45655;-38
2023/09/09 14:20:18;;;;;;;8.00;7.20;;;;;;;;;;107686;290;42598;-38
2023/09/09 14:22:52;;;;;;;8.90;7.90;;;;;;;;;;107714;294;41961;-38
2023/09/09 14:25:31;;;;;;;8.70;7.40;;;;;;;;;;107653;293;38638;-38
2023/09/09 14:28:07;;;;;;;8.70;7.60;;;;;;;;;;107723;297;39908;-38
2023/09/09 14:30:53;;;;;;;8.90;7.60;;;;;;;;;;107730;290;42527;-37
2023/09/09 14:33:35;;;;;;;9.20;7.10;;;;;;;;;;107723;298;41744;-37
2023/09/09 14:36:09;;;;;;;8.80;7.90;;;;;;;;;;107654;293;38495;-37
2023/09/09 14:38:44;;;;;;;8.90;7.70;;;;;;;;;;107733;297;39523;-37
2023/09/09 14:41:21;;;;;;;8.60;7.70;;;;;;;;;;107563;297;175446;-36
2023/09/09 14:44:02;;;;;;;9.20;7.80;;;;;;;;;;107704;297;42053;-37
2023/09/09 14:46:39;;;;;;;8.80;7.70;;;;;;;;;;107639;290;38568;-37
2023/09/09 14:49:14;;;;;;;9.00;7.40;;;;;;;;;;107697;294;39480;-37
2023/09/09 14:51:51;;;;;;;8.50;7.40;;;;;;;;;;107695;294;42696;-37
2023/09/09 14:54:25;;;;;;;8.70;7.70;;;;;;;;;;107583;294;175434;-37
2023/09/09 14:56:59;;;;;;;9.20;7.80;;;;;;;;;;107687;290;38676;-36
2023/09/09 14:59:39;;;;;;;9.20;8.20;;;;;;;;;;107750;297;39315;-37
2023/09/09 15:02:17;;;;;;;9.50;7.60;;;;;;;;;;107651;298;44003;-37
2023/09/09 15:04:50;;;;;;;9.20;8.30;;;;;;;;;;107646;297;41792;-37
2023/09/09 15:07:24;;;;;;;9.10;7.80;;;;;;;;;;107688;290;38450;-36
2023/09/09 15:09:58;;;;;;;9.50;8.00;;;;;;;;;;107595;294;175401;-37
2023/09/09 15:12:33;;;;;;;8.60;7.70;;;;;;;;;;107685;297;43807;-37
2023/09/09 15:15:10;;;;;;;9.10;7.60;;;;;;;;;;107710;303;41783;-37
2023/09/09 15:17:43;;;;;;;9.60;7.50;;;;;;;;;;107608;302;39889;-37
2023/09/09 15:20:20;;;;;;;8.60;7.70;;;;;;;;;;107687;290;39379;-37
2023/09/09 15:22:53;;;;;;;8.30;7.40;;;;;;;;;;107613;294;175744;-36
2023/09/09 15:25:26;;;;;;;8.80;7.90;;;;;;;;;;107701;290;41773;-37
2023/09/09 15:27:59;;;;;;;8.10;7.30;;;;;;;;;;107634;297;38494;-37